createdAt,value
2019-06-07T00:02:08.225Z,10.93
2019-06-07T00:04:39.809Z,11.20
2019-06-07T00:07:12.595Z,10.30
2019-06-07T00:09:44.708Z,11.10
2019-06-07T00:12:17.620Z,10.80
2019-06-07T00:14:49.591Z,14.73
2019-06-07T00:17:21.173Z,11.30
2019-06-07T00:19:52.725Z,11.77
2019-06-07T00:22:32.895Z,11.10
2019-06-07T00:24:57.605Z,13.50
2019-06-07T00:27:29.176Z,10.27
2019-06-07T00:30:29.619Z,10.47
2019-06-07T00:32:35.691Z,11.67
2019-06-07T00:35:09.313Z,11.70
2019-06-07T00:37:41.134Z,11.13
2019-06-07T00:40:18.590Z,14.27
2019-06-07T00:42:46.971Z,11.60
2019-06-07T00:45:21.780Z,11.47
2019-06-07T00:47:52.146Z,10.70
2019-06-07T00:50:24.481Z,11.63
2019-06-07T00:53:14.732Z,11.20
2019-06-07T00:55:30.644Z,11.33
2019-06-07T00:58:02.674Z,11.97
2019-06-07T01:00:34.276Z,11.30
2019-06-07T01:03:05.854Z,10.90
2019-06-07T01:05:37.448Z,11.03
2019-06-07T01:08:09.033Z,12.13
2019-06-07T01:10:52.884Z,11.40
2019-06-07T01:13:15.490Z,11.53
2019-06-07T01:15:47.634Z,9.87
2019-06-07T01:18:37.848Z,10.43
2019-06-07T01:20:52.758Z,12.03
2019-06-07T01:23:59.777Z,10.03
2019-06-07T01:25:57.587Z,12.33
2019-06-07T01:28:30.149Z,11.33
2019-06-07T01:31:01.939Z,12.03
2019-06-07T01:33:50.465Z,13.03
2019-06-07T01:36:06.850Z,14.20
2019-06-07T01:38:38.446Z,12.10
2019-06-07T01:41:10.067Z,13.10
2019-06-07T01:43:41.626Z,10.90
2019-06-07T01:46:13.259Z,12.10
2019-06-07T01:48:49.469Z,14.43
2019-06-07T01:51:18.955Z,12.97
2019-06-07T01:54:40.728Z,13.50
2019-06-07T01:56:29.231Z,14.60
2019-06-07T01:58:58.128Z,13.13
2019-06-07T02:01:34.929Z,14.97
2019-06-07T02:04:03.483Z,13.00
2019-06-07T02:06:35.130Z,13.13
2019-06-07T02:09:09.118Z,14.67
2019-06-07T02:11:40.705Z,13.43
2019-06-07T02:14:12.302Z,14.40
2019-06-07T02:16:43.880Z,13.17
2019-06-07T02:19:15.732Z,15.00
2019-06-07T02:21:47.329Z,13.53
2019-06-07T02:24:21.297Z,13.77
2019-06-07T02:26:52.220Z,15.27
2019-06-07T02:29:25.464Z,13.37
2019-06-07T02:31:57.082Z,13.03
2019-06-07T02:34:35.922Z,14.33
2019-06-07T02:37:02.036Z,13.27
2019-06-07T02:39:40.338Z,13.07
2019-06-07T02:42:07.789Z,13.00
2019-06-07T02:44:40.410Z,15.87
2019-06-07T02:47:12.199Z,14.37
2019-06-07T02:49:44.953Z,14.33
2019-06-07T02:52:16.529Z,14.30
2019-06-07T02:54:48.119Z,13.87
2019-06-07T02:57:19.737Z,14.30
2019-06-07T03:00:06.533Z,15.50
2019-06-07T03:02:26.639Z,13.30
2019-06-07T03:04:57.902Z,13.70
2019-06-07T03:07:34.950Z,14.77
2019-06-07T03:10:06.085Z,15.50
2019-06-07T03:12:40.762Z,14.90
2019-06-07T03:15:31.654Z,13.23
2019-06-07T03:17:51.919Z,14.77
2019-06-07T03:20:24.094Z,15.13
2019-06-07T03:22:57.757Z,14.13
2019-06-07T03:25:39.205Z,15.40
2019-06-07T03:28:10.961Z,13.50
2019-06-07T03:30:58.197Z,13.57
2019-06-07T03:33:15.832Z,15.57
2019-06-07T03:35:47.497Z,13.40
2019-06-07T03:38:19.119Z,13.90
2019-06-07T03:40:50.646Z,13.30
2019-06-07T03:43:22.236Z,14.37
2019-06-07T03:45:53.812Z,14.00
2019-06-07T03:48:28.442Z,13.90
2019-06-07T03:51:04.642Z,14.83
2019-06-07T03:53:34.815Z,14.40
2019-06-07T03:56:06.781Z,15.10
2019-06-07T03:58:49.149Z,12.67
2019-06-07T04:01:11.791Z,15.23
2019-06-07T04:03:51.006Z,16.03
2019-06-07T04:06:16.706Z,14.43
2019-06-07T04:08:48.288Z,14.90
2019-06-07T04:11:20.968Z,14.37
2019-06-07T04:13:52.546Z,14.17
2019-06-07T04:16:24.120Z,13.90
2019-06-07T04:18:55.697Z,14.77
2019-06-07T04:21:29.741Z,14.20
2019-06-07T04:24:00.535Z,13.70
2019-06-07T04:26:34.449Z,13.97
2019-06-07T04:29:32.161Z,14.87
2019-06-07T04:31:42.472Z,14.23
2019-06-07T04:34:12.015Z,13.47
2019-06-07T04:36:56.538Z,16.67
2019-06-07T04:39:16.943Z,13.83
2019-06-07T04:41:50.360Z,13.97
2019-06-07T04:44:23.162Z,14.93
2019-06-07T04:46:58.210Z,15.00
2019-06-07T04:49:32.243Z,19.40
2019-06-07T04:52:03.071Z,14.27
2019-06-07T04:54:35.729Z,14.43
2019-06-07T04:57:09.000Z,14.37
2019-06-07T05:00:10.512Z,14.43
2019-06-07T05:02:13.867Z,15.53
2019-06-07T05:04:45.569Z,14.43
2019-06-07T05:07:17.157Z,16.50
2019-06-07T05:09:48.723Z,13.57
2019-06-07T05:12:20.334Z,12.93
2019-06-07T05:14:52.117Z,15.00
2019-06-07T05:17:23.727Z,14.00
2019-06-07T05:19:55.412Z,13.10
2019-06-07T05:22:27.094Z,13.40
2019-06-07T05:24:58.755Z,12.53
2019-06-07T05:27:32.577Z,13.00
2019-06-07T05:30:13.702Z,12.60
2019-06-07T05:32:42.795Z,12.23
2019-06-07T05:35:12.295Z,12.20
2019-06-07T05:37:45.954Z,13.03
2019-06-07T05:40:24.717Z,13.43
2019-06-07T05:42:56.320Z,11.90
2019-06-07T05:45:38.469Z,15.60
2019-06-07T05:48:09.464Z,10.00
2019-06-07T05:50:54.790Z,9.80
2019-06-07T05:53:14.330Z,10.70
2019-06-07T05:55:47.666Z,9.93
2019-06-07T05:58:19.313Z,8.93
2019-06-07T06:00:51.125Z,8.80
2019-06-07T06:03:22.839Z,10.80
2019-06-07T06:05:55.689Z,9.77
2019-06-07T06:08:28.167Z,9.13
2019-06-07T06:10:59.764Z,8.60
2019-06-07T06:13:31.483Z,8.37
2019-06-07T06:16:03.138Z,8.53
2019-06-07T06:18:35.639Z,8.33
2019-06-07T06:21:18.126Z,7.70
2019-06-07T06:23:42.762Z,7.47
2019-06-07T06:26:13.840Z,7.80
2019-06-07T06:28:45.484Z,7.30
2019-06-07T06:31:17.049Z,7.47
2019-06-07T06:33:49.853Z,7.07
2019-06-07T06:36:22.369Z,7.20
2019-06-07T06:38:54.413Z,7.77
2019-06-07T06:41:25.944Z,6.67
2019-06-07T06:43:57.549Z,7.20
2019-06-07T06:46:38.851Z,6.70
2019-06-07T06:49:03.399Z,6.60
2019-06-07T06:51:34.970Z,7.20
2019-06-07T06:54:06.569Z,6.80
2019-06-07T06:56:39.704Z,6.90
2019-06-07T06:59:37.531Z,6.60
2019-06-07T07:01:47.327Z,6.70
2019-06-07T07:04:18.522Z,6.37
2019-06-07T07:06:53.086Z,6.60
2019-06-07T07:09:25.090Z,5.90
2019-06-07T07:12:11.132Z,5.47
2019-06-07T07:14:29.995Z,5.97
2019-06-07T07:17:01.572Z,5.90
2019-06-07T07:19:34.312Z,5.70
2019-06-07T07:22:05.954Z,5.80
2019-06-07T07:24:37.556Z,5.00
2019-06-07T07:27:09.125Z,4.53
2019-06-07T07:29:40.746Z,4.37
2019-06-07T07:32:12.385Z,5.30
2019-06-07T07:34:46.224Z,5.47
2019-06-07T07:37:17.375Z,5.10
2019-06-07T07:39:52.992Z,5.60
2019-06-07T07:42:22.230Z,4.90
2019-06-07T07:44:56.513Z,15.87
2019-06-07T07:47:27.115Z,4.90
2019-06-07T07:49:59.243Z,4.37
2019-06-07T07:52:31.058Z,4.40
2019-06-07T07:55:02.586Z,5.40
2019-06-07T07:57:34.223Z,4.00
2019-06-07T08:00:48.662Z,3.90
2019-06-07T08:02:39.908Z,4.17
2019-06-07T08:05:23.442Z,4.53
2019-06-07T08:07:47.546Z,4.20
2019-06-07T08:10:19.237Z,3.87
2019-06-07T08:13:12.878Z,3.97
2019-06-07T08:15:24.115Z,4.20
2019-06-07T08:18:00.307Z,4.77
2019-06-07T08:20:28.972Z,6.23
2019-06-07T08:23:01.656Z,4.27
2019-06-07T08:25:33.256Z,4.23
2019-06-07T08:28:04.861Z,3.53
2019-06-07T08:30:58.367Z,3.60
2019-06-07T08:33:25.401Z,3.57
2019-06-07T08:36:05.997Z,4.03
2019-06-07T08:38:26.890Z,6.03
2019-06-07T08:40:54.635Z,6.03
2019-06-07T08:43:23.467Z,4.40
2019-06-07T08:46:02.156Z,3.60
2019-06-07T08:48:30.383Z,4.30
2019-06-07T08:51:08.146Z,3.63
2019-06-07T08:53:36.578Z,4.10
2019-06-07T08:56:10.773Z,4.00
2019-06-07T08:58:41.455Z,4.70
2019-06-07T09:01:13.074Z,3.63
2019-06-07T09:03:44.643Z,4.20
2019-06-07T09:07:01.329Z,4.10
2019-06-07T09:08:49.827Z,4.90
2019-06-07T09:11:21.423Z,4.33
2019-06-07T09:13:54.485Z,4.60
2019-06-07T09:16:26.358Z,6.03
2019-06-07T09:18:59.048Z,4.70
2019-06-07T09:21:31.235Z,4.70
2019-06-07T09:24:10.386Z,3.77
2019-06-07T09:26:36.109Z,4.07
2019-06-07T09:29:11.038Z,4.30
2019-06-07T09:31:52.654Z,4.43
2019-06-07T09:34:15.631Z,5.23
2019-06-07T09:36:47.439Z,4.07
2019-06-07T09:39:19.013Z,4.73
2019-06-07T09:41:50.695Z,4.70
2019-06-07T09:44:26.032Z,4.43
2019-06-07T09:47:12.783Z,5.23
2019-06-07T09:49:32.464Z,4.60
2019-06-07T09:52:06.834Z,4.60
2019-06-07T09:55:06.126Z,4.37
2019-06-07T09:57:16.701Z,4.80
2019-06-07T09:59:42.537Z,4.70
2019-06-07T10:02:14.109Z,4.30
2019-06-07T10:04:46.103Z,4.93
2019-06-07T10:07:31.441Z,5.10
2019-06-07T10:10:17.351Z,4.87
2019-06-07T10:12:24.253Z,4.60
2019-06-07T10:14:55.930Z,5.30
2019-06-07T10:17:27.502Z,4.87
2019-06-07T10:20:00.461Z,4.70
2019-06-07T10:22:32.413Z,4.73
2019-06-07T10:25:04.395Z,4.57
2019-06-07T10:27:36.050Z,5.23
2019-06-07T10:30:08.647Z,6.93
2019-06-07T10:32:40.233Z,5.13
2019-06-07T10:35:15.993Z,5.80
2019-06-07T10:37:45.500Z,5.70
2019-06-07T10:40:18.693Z,5.33
2019-06-07T10:42:50.285Z,5.23
2019-06-07T10:45:21.881Z,5.47
2019-06-07T10:47:53.523Z,5.57
2019-06-07T10:50:25.374Z,5.80
2019-06-07T10:52:56.981Z,5.80
2019-06-07T10:55:28.589Z,5.73
2019-06-07T10:58:00.243Z,5.67
2019-06-07T11:00:32.023Z,6.00
2019-06-07T11:03:03.701Z,6.73
2019-06-07T11:05:35.294Z,5.90
2019-06-07T11:08:07.993Z,5.90
2019-06-07T11:10:39.700Z,6.60
2019-06-07T11:13:12.450Z,5.60
2019-06-07T11:15:44.181Z,5.50
2019-06-07T11:18:15.708Z,5.80
2019-06-07T11:20:47.323Z,6.00
2019-06-07T11:23:18.937Z,6.40
2019-06-07T11:25:50.521Z,5.77
2019-06-07T11:28:22.288Z,6.27
2019-06-07T11:30:53.906Z,5.93
2019-06-07T11:33:25.462Z,5.83
2019-06-07T11:35:57.047Z,5.50
2019-06-07T11:38:28.686Z,5.90
2019-06-07T11:41:00.276Z,6.53
2019-06-07T11:43:31.918Z,6.40
2019-06-07T11:46:03.529Z,6.27
2019-06-07T11:48:35.111Z,5.60
2019-06-07T11:51:06.791Z,6.30
2019-06-07T11:53:38.306Z,6.43
2019-06-07T11:56:10.353Z,6.30
2019-06-07T11:58:41.991Z,6.63
2019-06-07T12:01:14.907Z,6.10
2019-06-07T12:03:46.891Z,7.23
2019-06-07T12:06:18.441Z,7.20
2019-06-07T12:08:50.047Z,7.03
2019-06-07T12:11:21.607Z,6.10
2019-06-07T12:13:53.609Z,6.27
2019-06-07T12:16:25.166Z,5.97
2019-06-07T12:18:56.745Z,5.83
2019-06-07T12:21:28.332Z,6.57
2019-06-07T12:23:59.907Z,6.10
2019-06-07T12:26:31.653Z,6.07
2019-06-07T12:29:03.253Z,6.70
2019-06-07T12:31:34.934Z,6.20
2019-06-07T12:34:06.637Z,6.20
2019-06-07T12:36:38.254Z,6.97
2019-06-07T12:39:09.864Z,5.83
2019-06-07T12:41:41.450Z,5.97
2019-06-07T12:44:14.508Z,6.17
2019-06-07T12:46:46.214Z,5.93
2019-06-07T12:49:19.124Z,5.90
2019-06-07T12:51:50.710Z,6.60
2019-06-07T12:54:23.730Z,6.33
2019-06-07T12:56:55.563Z,6.50
2019-06-07T12:59:27.134Z,6.27
2019-06-07T13:02:02.219Z,6.57
2019-06-07T13:04:32.019Z,6.03
2019-06-07T13:07:03.631Z,6.50
2019-06-07T13:09:36.153Z,6.07
2019-06-07T13:12:08.111Z,6.60
2019-06-07T13:14:39.696Z,6.30
2019-06-07T13:17:11.276Z,6.30
2019-06-07T13:19:42.873Z,6.27
2019-06-07T13:22:14.471Z,6.70
2019-06-07T13:24:46.053Z,6.23
2019-06-07T13:27:18.274Z,7.50
2019-06-07T13:29:50.032Z,6.43
2019-06-07T13:32:21.714Z,6.20
2019-06-07T13:34:53.253Z,5.83
2019-06-07T13:37:25.490Z,6.93
2019-06-07T13:39:57.199Z,5.27
2019-06-07T13:42:28.820Z,7.60
2019-06-07T13:45:00.384Z,8.47
2019-06-07T13:47:32.016Z,5.97
2019-06-07T13:50:03.619Z,6.20
2019-06-07T13:52:35.230Z,6.00
2019-06-07T13:55:07.747Z,5.73
2019-06-07T13:57:39.402Z,5.97
2019-06-07T14:00:11.833Z,6.10
2019-06-07T14:02:43.499Z,5.97
2019-06-07T14:05:15.694Z,5.63
2019-06-07T14:07:47.317Z,5.40
2019-06-07T14:10:19.417Z,5.40
2019-06-07T14:12:51.073Z,5.80
2019-06-07T14:15:24.368Z,5.73
2019-06-07T14:17:56.384Z,5.00
2019-06-07T14:20:32.442Z,5.43
2019-06-07T14:23:01.263Z,6.87
2019-06-07T14:25:32.827Z,5.40
2019-06-07T14:28:10.925Z,5.47
2019-06-07T14:30:37.738Z,5.00
2019-06-07T14:33:09.345Z,5.47
2019-06-07T14:35:40.939Z,5.20
2019-06-07T14:38:12.537Z,4.90
2019-06-07T14:40:44.132Z,5.50
2019-06-07T14:43:16.835Z,5.20
2019-06-07T14:45:48.434Z,5.30
2019-06-07T14:48:20.081Z,5.47
2019-06-07T14:50:51.679Z,5.90
2019-06-07T14:53:24.503Z,5.50
2019-06-07T14:55:57.519Z,4.70
2019-06-07T14:58:29.461Z,4.70
2019-06-07T15:01:01.118Z,5.20
2019-06-07T15:03:32.845Z,6.57
2019-06-07T15:06:04.441Z,4.90
2019-06-07T15:08:36.051Z,8.03
2019-06-07T15:11:07.624Z,5.43
2019-06-07T15:13:39.880Z,5.60
2019-06-07T15:16:11.662Z,5.40
2019-06-07T15:18:47.367Z,5.53
2019-06-07T15:21:19.025Z,4.77
2019-06-07T15:23:50.695Z,5.27
2019-06-07T15:26:22.284Z,5.50
2019-06-07T15:28:53.962Z,5.20
2019-06-07T15:31:25.635Z,5.27
2019-06-07T15:33:58.842Z,6.30
2019-06-07T15:36:30.447Z,6.40
2019-06-07T15:39:06.912Z,5.20
2019-06-07T15:41:39.772Z,7.20
2019-06-07T15:44:11.636Z,6.40
2019-06-07T15:46:44.271Z,5.83
2019-06-07T15:49:17.076Z,5.33
2019-06-07T15:51:48.649Z,6.07
2019-06-07T15:54:20.226Z,5.90
2019-06-07T15:56:53.305Z,5.53
2019-06-07T15:59:25.042Z,7.17
2019-06-07T16:01:56.637Z,6.60
2019-06-07T16:04:28.246Z,7.43
2019-06-07T16:06:59.904Z,6.03
2019-06-07T16:09:32.421Z,17.67
2019-06-07T16:12:04.195Z,7.43
2019-06-07T16:14:36.951Z,5.73
2019-06-07T16:17:08.579Z,5.70
2019-06-07T16:19:43.573Z,6.20
2019-06-07T16:22:13.492Z,7.60
2019-06-07T16:24:45.176Z,6.07
2019-06-07T16:27:16.857Z,6.90
2019-06-07T16:29:48.472Z,16.00
2019-06-07T16:32:20.114Z,11.73
2019-06-07T16:34:51.741Z,14.00
2019-06-07T16:37:23.436Z,8.60
2019-06-07T16:39:55.042Z,7.63
2019-06-07T16:42:26.737Z,6.27
2019-06-07T16:44:58.329Z,27.70
2019-06-07T16:47:29.943Z,28.20
2019-06-07T16:50:01.576Z,13.17
2019-06-07T16:52:33.154Z,6.47
2019-06-07T16:55:04.904Z,18.70
2019-06-07T16:57:36.835Z,12.53
2019-06-07T17:00:09.590Z,7.53
2019-06-07T17:02:42.245Z,7.87
2019-06-07T17:05:14.337Z,10.37
2019-06-07T17:07:46.950Z,7.63
2019-06-07T17:10:19.324Z,7.60
2019-06-07T17:12:51.104Z,9.40
2019-06-07T17:15:23.981Z,8.37
2019-06-07T17:17:55.578Z,9.50
2019-06-07T17:20:27.331Z,12.73
2019-06-07T17:22:59.014Z,16.87
2019-06-07T17:25:30.783Z,11.07
2019-06-07T17:28:02.445Z,11.77
2019-06-07T17:30:34.176Z,12.33
2019-06-07T17:33:06.017Z,13.10
2019-06-07T17:35:37.780Z,12.00
2019-06-07T17:38:09.458Z,12.40
2019-06-07T17:40:43.283Z,9.07
2019-06-07T17:43:15.345Z,9.27
2019-06-07T17:45:47.521Z,10.20
2019-06-07T17:48:19.350Z,10.47
2019-06-07T17:50:52.791Z,11.70
2019-06-07T17:53:24.623Z,9.00
2019-06-07T17:55:56.336Z,27.30
2019-06-07T17:58:28.060Z,24.03
2019-06-07T18:00:59.703Z,22.43
2019-06-07T18:03:31.988Z,16.20
2019-06-07T18:06:04.910Z,41.03
2019-06-07T18:08:37.221Z,22.50
2019-06-07T18:11:08.814Z,12.90
2019-06-07T18:13:40.443Z,47.50
2019-06-07T18:16:12.027Z,9.83
2019-06-07T18:18:44.480Z,6.50
2019-06-07T18:21:16.321Z,3.93
2019-06-07T18:23:50.273Z,4.33
2019-06-07T18:26:21.979Z,6.37
2019-06-07T18:28:54.700Z,6.73
2019-06-07T18:31:26.413Z,2.90
2019-06-07T18:33:59.237Z,5.23
2019-06-07T18:36:31.014Z,3.83
2019-06-07T18:39:02.886Z,2.97
2019-06-07T18:41:36.142Z,4.70
2019-06-07T18:44:20.743Z,4.97
2019-06-07T18:46:41.089Z,7.53
2019-06-07T18:49:12.666Z,5.43
2019-06-07T18:51:47.463Z,3.40
2019-06-07T18:54:19.192Z,3.40
2019-06-07T18:56:50.828Z,5.53
2019-06-07T18:59:22.390Z,6.27
2019-06-07T19:01:54.007Z,5.77
2019-06-07T19:04:31.122Z,2.70
2019-06-07T19:07:02.708Z,3.30
2019-06-07T19:09:34.413Z,2.87
2019-06-07T19:12:06.072Z,4.80
2019-06-07T19:14:37.848Z,3.90
2019-06-07T19:17:09.419Z,2.80
2019-06-07T19:19:41.051Z,4.70
2019-06-07T19:22:12.670Z,4.70
2019-06-07T19:24:44.372Z,3.93
2019-06-07T19:27:15.983Z,2.23
2019-06-07T19:29:47.583Z,1.97
2019-06-07T19:32:19.244Z,4.80
2019-06-07T19:34:51.155Z,2.97
2019-06-07T19:37:22.849Z,1.70
2019-06-07T19:39:55.605Z,1.60
2019-06-07T19:42:27.631Z,2.17
2019-06-07T19:45:24.727Z,2.77
2019-06-07T19:47:32.734Z,2.97
2019-06-07T19:50:04.866Z,4.00
2019-06-07T19:52:36.461Z,1.40
2019-06-07T19:55:10.207Z,1.83
2019-06-07T19:57:42.360Z,2.13
2019-06-07T20:00:15.463Z,2.30
2019-06-07T20:02:47.175Z,2.10
2019-06-07T20:05:24.307Z,3.30
2019-06-07T20:07:56.447Z,2.77
2019-06-07T20:10:29.745Z,2.67
2019-06-07T20:13:02.858Z,3.00
2019-06-07T20:15:34.592Z,2.13
2019-06-07T20:18:07.568Z,2.03
2019-06-07T20:20:39.413Z,1.73
2019-06-07T20:23:11.107Z,1.93
2019-06-07T20:25:42.760Z,2.73
2019-06-07T20:28:14.387Z,2.43
2019-06-07T20:30:47.427Z,2.93
2019-06-07T20:33:19.034Z,1.80
2019-06-07T20:35:50.665Z,2.40
2019-06-07T20:38:22.486Z,2.90
2019-06-07T20:40:54.190Z,1.90
2019-06-07T20:43:25.758Z,9.20
2019-06-07T20:46:00.472Z,2.13
2019-06-07T20:48:31.171Z,3.07
2019-06-07T20:51:02.975Z,2.10
2019-06-07T20:53:35.949Z,2.10
2019-06-07T20:56:08.988Z,2.00
2019-06-07T20:58:41.844Z,2.67
2019-06-07T21:01:13.448Z,2.03
2019-06-07T21:03:45.101Z,1.60
2019-06-07T21:06:16.688Z,3.93
2019-06-07T21:08:48.304Z,2.17
2019-06-07T21:11:20.017Z,2.43
2019-06-07T21:13:51.964Z,3.37
2019-06-07T21:16:25.033Z,2.40
2019-06-07T21:18:56.681Z,2.10
2019-06-07T21:21:28.285Z,2.93
2019-06-07T21:24:00.512Z,2.77
2019-06-07T21:26:32.325Z,2.90
2019-06-07T21:29:04.894Z,2.60
2019-06-07T21:31:36.604Z,2.50
2019-06-07T21:34:11.006Z,2.97
2019-06-07T21:36:41.542Z,3.13
2019-06-07T21:39:13.211Z,2.07
2019-06-07T21:41:44.846Z,1.90
2019-06-07T21:44:16.482Z,3.23
2019-06-07T21:46:48.108Z,3.33
2019-06-07T21:49:19.727Z,2.90
2019-06-07T21:51:51.339Z,2.20
2019-06-07T21:54:22.976Z,7.63
2019-06-07T21:56:54.608Z,2.03
2019-06-07T21:59:26.239Z,2.57
2019-06-07T22:01:57.821Z,1.80
2019-06-07T22:04:29.430Z,3.67
2019-06-07T22:07:01.007Z,2.03
2019-06-07T22:09:32.719Z,2.67
2019-06-07T22:12:04.516Z,2.03
2019-06-07T22:14:36.374Z,3.13
2019-06-07T22:17:08.248Z,2.27
2019-06-07T22:19:39.826Z,3.90
2019-06-07T22:22:12.816Z,1.73
2019-06-07T22:24:44.595Z,2.37
2019-06-07T22:27:17.617Z,2.30
2019-06-07T22:29:49.311Z,2.43
2019-06-07T22:32:20.932Z,2.00
2019-06-07T22:34:52.532Z,3.20
2019-06-07T22:37:24.108Z,2.70
2019-06-07T22:39:56.786Z,3.33
2019-06-07T22:42:28.386Z,2.00
2019-06-07T22:45:00.442Z,3.53
2019-06-07T22:47:32.031Z,2.10
2019-06-07T22:50:03.699Z,3.10
2019-06-07T22:52:35.297Z,3.70
2019-06-07T22:55:08.134Z,2.43
2019-06-07T22:57:55.801Z,3.00
2019-06-07T23:00:28.770Z,4.80
2019-06-07T23:03:00.349Z,4.43
2019-06-07T23:05:31.933Z,3.03
2019-06-07T23:08:03.640Z,4.00
2019-06-07T23:10:35.209Z,2.97
2019-06-07T23:13:06.791Z,3.20
2019-06-07T23:15:38.388Z,2.80
2019-06-07T23:18:09.942Z,2.80
2019-06-07T23:20:41.515Z,2.80
2019-06-07T23:23:13.102Z,3.43
2019-06-07T23:25:44.737Z,2.10
2019-06-07T23:28:16.641Z,1.97
2019-06-07T23:30:48.278Z,2.47
2019-06-07T23:33:21.031Z,2.27
2019-06-07T23:35:52.676Z,2.30
2019-06-07T23:38:24.281Z,6.80
2019-06-07T23:40:55.856Z,3.50
2019-06-07T23:43:27.533Z,6.33
2019-06-07T23:45:59.175Z,2.50
2019-06-07T23:48:30.878Z,2.53
2019-06-07T23:51:02.503Z,3.27
2019-06-07T23:53:35.075Z,2.50
2019-06-07T23:56:06.652Z,3.13
2019-06-07T23:58:38.307Z,2.60
